Airfield :
LOGIN :

Register | Disclaimer

   EN    FR    IT 

 










Legend :    VFR   Marginal VFR   IFR   Intensive IFR   Very Intensive IFR
Visi :
Ceiling :
>= 8 km
>= 3000ft
5 to 8 km
1000 to 3000 ft
1500m to 5 km
500 to 1000 ft
800 to 1500m
200 to 500 ft
< 800m
< 200 ft
Symbols :   Thunderstorms  Fog  Heavy snow  Heavy precipitations  Wind > 20 kt
SIGMETs :     Misc.  Thunderstorms  Icing  Turbulence  Mountain Waves  Volcanic Ashes







- Airport Elevation : 215 ft
- IATA code : ABZ
- Download approach charts


EGPD - Aberdeen / Dyce

CURRENT METAR :
  • 160620Z 17008KT 9999 FEW008 BKN014 17/15 Q1010 TEMPO BKN008

EXPIRED METARs :
  • 160550Z AUTO 18008KT 9999 BKN010 17/15 Q1010 TEMPO BKN008
  • 160520Z AUTO 17006KT 9999 BKN009 OVC048 17/15 Q1010 TEMPO SCT009
  • 160450Z AUTO 18008KT 9999 BKN009 BKN049 17/15 Q1010 TEMPO SCT009
  • 160420Z AUTO 17006KT 9999 BKN009 17/15 Q1010 TEMPO SCT009
  • 160350Z AUTO 17007KT 9999 FEW012 BKN047 17/15 Q1010 NOSIG

TAF TAF EGPD
Valid from the 16 at 06:00 until the 17 at 06:00 UTC


160501Z 1606/1706 18007KT 9999 SCT025
TEMPO 1606/1615 6000 RA BKN009
PROB40
TEMPO 1612/1702 BKN004
No reported NOTAMs for that airfield.



MET'MAP, your aeronautical weather chart ! - Copyright ORBIFLY December 2007 - Disclaimer

ORBIFLY MET'MAP TEAM :

Programming & Development : Alexandra Zaïnal
Concept & Development : Baudouin d'Aumeries
Co-Development & Prog : Marc-Olivier Méhu
Technical & hardware support : Manuel Goepfert

Contact : metmap@orbifly.com




SOURCES & CREDITS :

   NOAA